Union, SC

10:20 PM EST on December 04, 2016 (GMT -0500)
West Springs | | Change Station

Elev 738 ft 34.78 °N, 81.80 °W | Updated 1 second ago

Rain
Rain
41.1 °F
Feels Like 41 °F
N
2.0
Wind Variable Wind from ENE

Today
High -- | Low -- °F
--% Chance of Precip.
Yesterday
High -- | Low -- °F
Precip. -- in
Pressure 30.08 in
Visibility 3.0 miles
Clouds
Windchill 41 °F
Dew Point 40 °F
Humidity 96%
Rainfall 0.32 in
Snow Depth Not available.
7:18 AM 5:15 PM
Waxing Crescent, 27% visible
METAR KLUX 050315Z AUTO 03004KT 3SM RA 05/05 A3008 RMK AO2 P0003
Pressure 30.08 in
Visibility 3.0 miles
Clouds
Windchill 41 °F
Dew Point 40 °F
Humidity 96%
Rainfall 0.32 in
Snow Depth Not available.
7:18 AM 5:15 PM
Waxing Crescent, 27% visible
METAR KLUX 050315Z AUTO 03004KT 3SM RA 05/05 A3008 RMK AO2 P0003

10-Day Weather Forecast

Almanac

Astronomy

Dec. 04, 2016 Rise Set
Actual Time
Civil Twilight
Nautical Twilight
Astronomical Twilight
Moon
Length of Visible Light
Length of Day
Tomorrow will be .
, % of the Moon is Illuminated

Today's Extremes

State Highs State Lows

Community

WunderPhotos

Upload Photos

1,955,752 photos uploaded!

WunderBlog® & News

Nearby

Air Quality

  Air Quality AQ Index Pollutant
Not available.

Snow Depth

Station Depth Elevation

Earthquake Activity

City Distance Mag. Time & Date
Minimum magnitude displayed is 2.5.

Coastal Water Temperatures

Place Temperature

Stations

Nearby Weather Stations

Station Location Temp. Windchill Dew Point Humidity Wind Precip. Elev Updated Type
                   

Watches & Warnings

There are currently no watches in effect.